createdAt,value
2019-01-18T00:00:59.884Z,96394.80
2019-01-18T00:04:06.763Z,96397.38
2019-01-18T00:07:13.727Z,96396.13
2019-01-18T00:10:20.603Z,96403.28
2019-01-18T00:13:27.680Z,96413.45
2019-01-18T00:16:35.626Z,96419.03
2019-01-18T00:19:42.530Z,96420.97
2019-01-18T00:22:50.485Z,96423.96
2019-01-18T00:25:58.035Z,96427.76
2019-01-18T00:29:05.236Z,96429.64
2019-01-18T00:32:12.153Z,96434.17
2019-01-18T00:35:19.039Z,96441.59
2019-01-18T00:38:25.975Z,96447.53
2019-01-18T00:41:32.855Z,96447.86
2019-01-18T00:44:39.789Z,96448.58
2019-01-18T00:47:46.732Z,96442.47
2019-01-18T00:50:53.985Z,96447.66
2019-01-18T00:54:01.938Z,96452.20
2019-01-18T00:57:08.973Z,96463.03
2019-01-18T01:00:20.223Z,96456.85
2019-01-18T01:03:27.210Z,96464.10
2019-01-18T01:06:34.088Z,96465.05
2019-01-18T01:09:40.997Z,96471.95
2019-01-18T01:12:47.974Z,96481.24
2019-01-18T01:15:58.035Z,96477.52
2019-01-18T01:19:04.906Z,96490.08
2019-01-18T01:22:11.906Z,96493.43
2019-01-18T01:25:18.799Z,96499.30
2019-01-18T01:28:25.781Z,96506.35
2019-01-18T01:31:32.663Z,96513.09
2019-01-18T01:34:39.573Z,96523.56
2019-01-18T01:37:49.395Z,96532.36
2019-01-18T01:40:56.319Z,96531.62
2019-01-18T01:44:03.296Z,96537.50
2019-01-18T01:47:10.201Z,96537.94
2019-01-18T01:50:21.620Z,96541.77
2019-01-18T01:53:28.523Z,96544.23
2019-01-18T01:56:37.101Z,96550.55
2019-01-18T01:59:49.944Z,96554.84
2019-01-18T02:02:55.477Z,96561.95
2019-01-18T02:06:02.407Z,96566.08
2019-01-18T02:09:09.427Z,96567.69
2019-01-18T02:12:17.777Z,96573.66
2019-01-18T02:15:27.421Z,96569.59
2019-01-18T02:18:34.351Z,96573.30
2019-01-18T02:21:41.685Z,96578.23
2019-01-18T02:24:49.704Z,96578.78
2019-01-18T02:27:56.574Z,96584.20
2019-01-18T02:31:03.570Z,96584.19
2019-01-18T02:34:10.434Z,96586.68
2019-01-18T02:37:17.379Z,96597.73
2019-01-18T02:40:24.248Z,96596.75
2019-01-18T02:43:32.830Z,96600.95
2019-01-18T02:46:40.039Z,96605.20
2019-01-18T02:49:47.372Z,96606.02
2019-01-18T02:52:54.243Z,96608.17
2019-01-18T02:56:01.193Z,96605.69
2019-01-18T02:59:08.552Z,96601.45
2019-01-18T03:02:15.464Z,96612.33
2019-01-18T03:05:26.461Z,96611.05
2019-01-18T03:08:33.438Z,96608.63
2019-01-18T03:11:40.600Z,96611.43
2019-01-18T03:14:47.849Z,96618.19
2019-01-18T03:17:54.728Z,96618.99
2019-01-18T03:21:01.633Z,96615.63
2019-01-18T03:24:08.519Z,96622.50
2019-01-18T03:27:15.415Z,96623.19
2019-01-18T03:30:22.621Z,96628.34
2019-01-18T03:33:29.601Z,96626.27
2019-01-18T03:36:36.567Z,96630.06
2019-01-18T03:39:45.868Z,96638.83
2019-01-18T03:42:53.229Z,96648.50
2019-01-18T03:46:00.136Z,96640.97
2019-01-18T03:49:07.505Z,96652.79
2019-01-18T03:52:14.428Z,96653.67
2019-01-18T03:55:21.306Z,96656.20
2019-01-18T03:58:28.234Z,96667.59
2019-01-18T04:01:36.117Z,96672.17
2019-01-18T04:04:43.121Z,96677.63
2019-01-18T04:07:50.079Z,96686.84
2019-01-18T04:10:56.995Z,96686.05
2019-01-18T04:14:04.059Z,96686.95
2019-01-18T04:17:10.987Z,96699.10
2019-01-18T04:20:18.694Z,96706.67
2019-01-18T04:23:25.636Z,96707.08
2019-01-18T04:26:32.521Z,96710.02
2019-01-18T04:29:41.593Z,96724.34
2019-01-18T04:32:48.520Z,96721.80
2019-01-18T04:35:55.533Z,96733.08
2019-01-18T04:39:04.041Z,96741.11
2019-01-18T04:42:12.036Z,96736.55
2019-01-18T04:45:18.922Z,96745.31
2019-01-18T04:48:25.850Z,96751.22
2019-01-18T04:51:32.762Z,96749.56
2019-01-18T04:54:40.008Z,96747.07
2019-01-18T04:57:49.730Z,96764.66
2019-01-18T05:00:56.737Z,96758.38
2019-01-18T05:04:03.921Z,96768.45
2019-01-18T05:07:10.842Z,96765.10
2019-01-18T05:10:19.434Z,96760.50
2019-01-18T05:13:26.375Z,96770.59
2019-01-18T05:16:33.376Z,96785.25
2019-01-18T05:19:41.581Z,96780.62
2019-01-18T05:22:49.662Z,96802.88
2019-01-18T05:25:56.588Z,96807.14
2019-01-18T05:29:03.497Z,96815.08
2019-01-18T05:32:10.804Z,96856.25
2019-01-18T05:35:17.897Z,96857.11
2019-01-18T05:38:24.851Z,96868.86
2019-01-18T05:41:31.824Z,96874.30
2019-01-18T05:44:38.746Z,96884.36
2019-01-18T05:47:45.696Z,96891.91
2019-01-18T05:50:52.629Z,96898.19
2019-01-18T05:53:59.648Z,96906.14
2019-01-18T05:57:06.894Z,96909.09
2019-01-18T06:00:21.771Z,96922.91
2019-01-18T06:03:28.693Z,96927.52
2019-01-18T06:06:37.711Z,96937.19
2019-01-18T06:09:44.707Z,96939.26
2019-01-18T06:12:51.658Z,96950.98
2019-01-18T06:15:58.580Z,96951.00
2019-01-18T06:19:05.549Z,96954.76
2019-01-18T06:22:12.701Z,96959.37
2019-01-18T06:25:19.767Z,96964.86
2019-01-18T06:28:27.733Z,96978.66
2019-01-18T06:31:34.621Z,96975.73
2019-01-18T06:34:41.564Z,96979.92
2019-01-18T06:37:48.452Z,96987.44
2019-01-18T06:40:58.930Z,96990.36
2019-01-18T06:44:06.083Z,96994.12
2019-01-18T06:47:13.091Z,97007.98
2019-01-18T06:50:21.083Z,97018.47
2019-01-18T06:53:28.008Z,97021.41
2019-01-18T06:56:35.004Z,97025.17
2019-01-18T06:59:41.951Z,97042.38
2019-01-18T07:02:48.970Z,97042.36
2019-01-18T07:05:56.853Z,97051.97
2019-01-18T07:09:06.025Z,97049.48
2019-01-18T07:12:12.934Z,97057.01
2019-01-18T07:15:19.899Z,97067.50
2019-01-18T07:18:26.812Z,97079.59
2019-01-18T07:21:33.718Z,97087.95
2019-01-18T07:24:40.635Z,97094.65
2019-01-18T07:27:47.610Z,97098.38
2019-01-18T07:30:54.929Z,97105.13
2019-01-18T07:34:04.878Z,97110.58
2019-01-18T07:37:11.806Z,97116.43
2019-01-18T07:40:18.683Z,97125.66
2019-01-18T07:43:25.753Z,97136.13
2019-01-18T07:46:32.899Z,97134.48
2019-01-18T07:49:39.819Z,97139.86
2019-01-18T07:52:46.821Z,97149.08
2019-01-18T07:55:53.757Z,97160.39
2019-01-18T07:59:00.653Z,97164.64
2019-01-18T08:02:07.622Z,97175.48
2019-01-18T08:05:14.565Z,97183.46
2019-01-18T08:08:21.495Z,97193.03
2019-01-18T08:11:29.905Z,97198.89
2019-01-18T08:14:36.829Z,97204.31
2019-01-18T08:17:43.753Z,97208.03
2019-01-18T08:20:50.771Z,97220.91
2019-01-18T08:23:57.644Z,97235.55
2019-01-18T08:27:04.653Z,97252.75
2019-01-18T08:30:16.131Z,97267.73
2019-01-18T08:33:23.295Z,97271.54
2019-01-18T08:36:30.182Z,97277.39
2019-01-18T08:39:37.758Z,97274.03
2019-01-18T08:42:44.651Z,97280.33
2019-01-18T08:45:58.867Z,97288.00
2019-01-18T08:49:05.778Z,97297.44
2019-01-18T08:52:12.717Z,97307.42
2019-01-18T08:55:19.955Z,97318.25
2019-01-18T08:58:27.091Z,97329.64
2019-01-18T09:01:35.827Z,97331.75
2019-01-18T09:04:42.629Z,97342.75
2019-01-18T09:07:50.576Z,97347.63
2019-01-18T09:10:57.604Z,97353.30
2019-01-18T09:14:04.801Z,97359.33
2019-01-18T09:17:11.722Z,97359.79
2019-01-18T09:20:22.017Z,97371.42
2019-01-18T09:23:28.948Z,97375.66
2019-01-18T09:26:35.846Z,97380.84
2019-01-18T09:29:42.780Z,97385.04
2019-01-18T09:32:50.284Z,97395.98
2019-01-18T09:35:57.215Z,97394.73
2019-01-18T09:39:05.604Z,97400.00
2019-01-18T09:42:16.253Z,97409.05
2019-01-18T09:45:23.509Z,97414.56
2019-01-18T09:48:30.426Z,97423.94
2019-01-18T09:51:37.346Z,97427.00
2019-01-18T09:54:44.317Z,97426.30
2019-01-18T09:57:51.238Z,97427.89
2019-01-18T10:00:58.178Z,97430.92
2019-01-18T10:04:05.131Z,97431.16
2019-01-18T10:07:12.086Z,97433.86
2019-01-18T10:10:20.127Z,97437.45
2019-01-18T10:13:27.094Z,97440.85
2019-01-18T10:16:34.288Z,97443.42
2019-01-18T10:19:41.223Z,97448.81
2019-01-18T10:22:49.111Z,97449.92
2019-01-18T10:25:56.056Z,97454.61
2019-01-18T10:29:03.041Z,97458.67
2019-01-18T10:32:13.192Z,97455.67
2019-01-18T10:35:21.105Z,97460.23
2019-01-18T10:38:28.117Z,97458.18
2019-01-18T10:41:35.027Z,97455.42
2019-01-18T10:44:41.960Z,97459.82
2019-01-18T10:47:49.044Z,97461.63
2019-01-18T10:50:56.050Z,97459.77
2019-01-18T10:54:02.924Z,97457.59
2019-01-18T10:57:09.990Z,97463.23
2019-01-18T11:00:23.029Z,97467.45
2019-01-18T11:03:29.933Z,97461.84
2019-01-18T11:06:36.827Z,97473.66
2019-01-18T11:09:43.784Z,97473.44
2019-01-18T11:12:50.666Z,97467.73
2019-01-18T11:15:57.595Z,97481.41
2019-01-18T11:19:05.741Z,97476.34
2019-01-18T11:22:12.840Z,97466.32
2019-01-18T11:25:19.738Z,97458.27
2019-01-18T11:28:26.690Z,97468.77
2019-01-18T11:31:33.569Z,97462.30
2019-01-18T11:34:40.496Z,97469.63
2019-01-18T11:37:47.525Z,97461.42
2019-01-18T11:40:54.650Z,97461.88
2019-01-18T11:44:03.492Z,97471.97
2019-01-18T11:47:11.823Z,97468.45
2019-01-18T11:50:24.491Z,97469.50
2019-01-18T11:53:31.434Z,97465.30
2019-01-18T11:56:38.329Z,97462.91
2019-01-18T11:59:49.042Z,97467.01
2019-01-18T12:02:53.847Z,97470.95
2019-01-18T12:06:00.803Z,97465.30
2019-01-18T12:09:09.535Z,97472.52
2019-01-18T12:12:16.475Z,97470.87
2019-01-18T12:15:23.352Z,97466.68
2019-01-18T12:18:31.435Z,97467.38
2019-01-18T12:21:38.689Z,97467.28
2019-01-18T12:24:45.654Z,97469.92
2019-01-18T12:27:52.544Z,97468.73
2019-01-18T12:30:59.455Z,97469.20
2019-01-18T12:34:06.488Z,97466.00
2019-01-18T12:37:13.407Z,97458.47
2019-01-18T12:40:20.789Z,97453.90
2019-01-18T12:43:27.850Z,97459.75
2019-01-18T12:46:34.726Z,97464.27
2019-01-18T12:49:41.970Z,97465.60
2019-01-18T12:52:48.832Z,97463.36
2019-01-18T12:55:55.861Z,97464.14
2019-01-18T12:59:02.751Z,97460.59
2019-01-18T13:02:09.800Z,97463.80
2019-01-18T13:05:21.129Z,97467.59
2019-01-18T13:08:28.050Z,97474.26
2019-01-18T13:11:34.940Z,97472.50
2019-01-18T13:14:42.028Z,97475.11
2019-01-18T13:17:49.364Z,97479.02
2019-01-18T13:20:56.329Z,97481.98
2019-01-18T13:24:03.594Z,97480.22
2019-01-18T13:27:10.500Z,97475.67
2019-01-18T13:30:17.666Z,97475.91
2019-01-18T13:33:24.583Z,97469.60
2019-01-18T13:36:31.454Z,97472.84
2019-01-18T13:39:38.526Z,97468.42
2019-01-18T13:42:45.512Z,97473.96
2019-01-18T13:45:52.429Z,97486.25
2019-01-18T13:48:59.303Z,97483.73
2019-01-18T13:52:06.238Z,97484.58
2019-01-18T13:55:20.587Z,97491.67
2019-01-18T13:58:27.568Z,97493.81
2019-01-18T14:01:34.595Z,97502.06
2019-01-18T14:04:41.519Z,97494.66
2019-01-18T14:07:48.398Z,97496.34
2019-01-18T14:10:55.325Z,97503.09
2019-01-18T14:14:02.242Z,97493.30
2019-01-18T14:17:11.412Z,97491.34
2019-01-18T14:20:20.949Z,97495.62
2019-01-18T14:23:27.517Z,97502.26
2019-01-18T14:26:34.758Z,97499.19
2019-01-18T14:29:41.683Z,97512.33
2019-01-18T14:32:55.140Z,97518.96
2019-01-18T14:35:57.376Z,97518.11
2019-01-18T14:39:06.805Z,97516.37
2019-01-18T14:42:16.916Z,97510.13
2019-01-18T14:45:34.181Z,97509.50
2019-01-18T14:48:43.965Z,97515.41
2019-01-18T14:51:50.971Z,97518.19
2019-01-18T14:54:57.901Z,97508.99
2019-01-18T14:58:11.806Z,97507.02
2019-01-18T15:01:18.920Z,97508.57
2019-01-18T15:04:25.806Z,97507.77
2019-01-18T15:07:32.726Z,97497.02
2019-01-18T15:10:39.604Z,97494.11
2019-01-18T15:13:46.509Z,97499.13
2019-01-18T15:16:53.393Z,97506.47
2019-01-18T15:20:00.431Z,97516.92
2019-01-18T15:23:09.592Z,97515.31
2019-01-18T15:26:18.484Z,97510.33
2019-01-18T15:29:26.048Z,97509.11
2019-01-18T15:32:33.092Z,97513.80
2019-01-18T15:35:40.667Z,97523.18
2019-01-18T15:38:47.793Z,97530.34
2019-01-18T15:41:54.703Z,97531.92
2019-01-18T15:45:01.647Z,97534.45
2019-01-18T15:48:08.686Z,97535.31
2019-01-18T15:51:16.008Z,97539.00
2019-01-18T15:54:23.230Z,97539.19
2019-01-18T15:57:30.308Z,97544.20
2019-01-18T16:00:40.842Z,97543.72
2019-01-18T16:03:47.907Z,97548.63
2019-01-18T16:06:54.908Z,97549.97
2019-01-18T16:10:01.913Z,97545.86
2019-01-18T16:13:10.875Z,97547.78
2019-01-18T16:16:33.314Z,97546.30
2019-01-18T16:19:40.262Z,97550.71
2019-01-18T16:22:47.522Z,97565.42
2019-01-18T16:25:54.428Z,97553.95
2019-01-18T16:29:01.353Z,97554.93
2019-01-18T16:32:08.581Z,97559.30
2019-01-18T16:35:19.537Z,97557.09
2019-01-18T16:38:26.659Z,97555.33
2019-01-18T16:41:34.724Z,97559.33
2019-01-18T16:44:41.753Z,97564.02
2019-01-18T16:47:48.765Z,97563.53
2019-01-18T16:50:55.791Z,97565.45
2019-01-18T16:54:02.932Z,97568.89
2019-01-18T16:57:11.124Z,97566.70
2019-01-18T17:00:34.249Z,97563.86
2019-01-18T17:03:41.267Z,97569.00
2019-01-18T17:06:48.876Z,97567.95
2019-01-18T17:09:55.784Z,97567.09
2019-01-18T17:13:02.742Z,97566.36
2019-01-18T17:16:10.206Z,97575.19
2019-01-18T17:19:17.465Z,97568.14
2019-01-18T17:22:24.406Z,97566.26
2019-01-18T17:25:31.322Z,97571.23
2019-01-18T17:28:38.390Z,97575.42
2019-01-18T17:31:47.042Z,97576.17
2019-01-18T17:34:54.552Z,97579.96
2019-01-18T17:38:19.870Z,97583.11
2019-01-18T17:42:08.903Z,97580.23
2019-01-18T17:46:01.903Z,97590.55
2019-01-18T17:49:49.391Z,97591.98
2019-01-18T17:53:50.386Z,97596.58
2019-01-18T17:58:04.591Z,97594.95
2019-01-18T18:01:58.677Z,97599.64
2019-01-18T18:06:04.159Z,97608.28
2019-01-18T18:09:44.063Z,97619.89
2019-01-18T18:13:46.270Z,97612.69
2019-01-18T18:17:43.444Z,97617.94
2019-01-18T18:21:59.087Z,97608.51
2019-01-18T18:26:24.384Z,97617.30
2019-01-18T18:30:18.580Z,97620.75
2019-01-18T18:34:30.651Z,97623.02
2019-01-18T18:38:43.842Z,97617.33
2019-01-18T18:42:40.121Z,97613.05
2019-01-18T18:46:44.937Z,97610.86
2019-01-18T18:50:37.421Z,97616.69
2019-01-18T18:54:41.666Z,97618.48
2019-01-18T18:58:50.981Z,97623.80
2019-01-18T19:02:40.313Z,97626.14
2019-01-18T19:06:53.351Z,97620.94
2019-01-18T19:10:55.703Z,97618.16
2019-01-18T19:14:50.362Z,97614.95
2019-01-18T19:18:55.077Z,97611.13
2019-01-18T19:23:02.289Z,97614.01
2019-01-18T19:26:53.272Z,97610.93
2019-01-18T19:31:14.674Z,97619.61
2019-01-18T19:35:18.929Z,97623.64
2019-01-18T19:39:32.526Z,97614.56
2019-01-18T19:43:56.816Z,97616.13
2019-01-18T19:47:39.310Z,97620.91
2019-01-18T19:51:41.877Z,97623.52
2019-01-18T19:55:41.185Z,97637.33
2019-01-18T19:59:59.251Z,97636.42
2019-01-18T20:03:31.870Z,97637.16
2019-01-18T20:07:05.250Z,97639.84
2019-01-18T20:10:56.597Z,97645.86
2019-01-18T20:14:45.559Z,97646.09
2019-01-18T20:18:35.108Z,97643.59
2019-01-18T20:22:42.439Z,97645.79
2019-01-18T20:26:52.342Z,97648.50
2019-01-18T20:30:55.436Z,97647.08
2019-01-18T20:34:57.182Z,97647.33
2019-01-18T20:39:06.125Z,97650.39
2019-01-18T20:43:14.502Z,97654.02
2019-01-18T20:47:33.241Z,97659.70
2019-01-18T20:51:37.747Z,97654.91
2019-01-18T20:55:39.688Z,97652.81
2019-01-18T20:59:50.330Z,97651.38
2019-01-18T21:03:40.300Z,97652.77
2019-01-18T21:07:29.231Z,97643.80
2019-01-18T21:11:54.517Z,97644.75
2019-01-18T21:15:15.766Z,97643.89
2019-01-18T21:18:47.839Z,97648.84
2019-01-18T21:22:58.626Z,97640.88
2019-01-18T21:26:58.584Z,97646.83
2019-01-18T21:30:40.369Z,97647.93
2019-01-18T21:34:32.988Z,97641.69
2019-01-18T21:38:46.466Z,97642.02
2019-01-18T21:42:37.056Z,97645.42
2019-01-18T21:46:11.695Z,97645.02
2019-01-18T21:49:52.541Z,97635.55
2019-01-18T21:53:40.843Z,97635.41
2019-01-18T21:57:49.936Z,97638.00
2019-01-18T22:01:51.565Z,97643.52
2019-01-18T22:06:16.974Z,97657.98
2019-01-18T22:10:09.933Z,97647.64
2019-01-18T22:14:12.494Z,97647.22
2019-01-18T22:18:14.871Z,97652.66
2019-01-18T22:22:14.098Z,97646.20
2019-01-18T22:25:43.464Z,97650.92
2019-01-18T22:30:07.620Z,97650.17
2019-01-18T22:33:47.203Z,97645.81
2019-01-18T22:38:18.638Z,97655.67
2019-01-18T22:42:37.695Z,97651.55
2019-01-18T22:46:43.474Z,97656.06
2019-01-18T22:50:21.372Z,97654.73
2019-01-18T22:53:49.035Z,97654.91
2019-01-18T22:57:52.504Z,97650.59
2019-01-18T23:02:04.389Z,97656.43
2019-01-18T23:06:00.870Z,97662.56
2019-01-18T23:09:46.571Z,97653.47
2019-01-18T23:13:37.381Z,97649.20
2019-01-18T23:17:58.577Z,97647.75
2019-01-18T23:22:11.720Z,97645.21
2019-01-18T23:26:02.755Z,97644.59
2019-01-18T23:29:46.570Z,97645.06
2019-01-18T23:33:45.539Z,97639.77
2019-01-18T23:37:58.114Z,97639.27
2019-01-18T23:42:14.333Z,97641.42
2019-01-18T23:46:23.427Z,97637.61
2019-01-18T23:50:13.272Z,97630.08
2019-01-18T23:54:19.457Z,97629.25
2019-01-18T23:58:04.425Z,97629.69
